createdAt,value
2023-01-03T00:02:18.332Z,81.40
2023-01-03T00:04:50.029Z,81.40
2023-01-03T00:07:35.275Z,81.40
2023-01-03T00:10:08.354Z,81.50
2023-01-03T00:12:39.013Z,81.50
2023-01-03T00:15:09.033Z,81.60
2023-01-03T00:17:38.676Z,81.60
2023-01-03T00:20:09.303Z,81.60
2023-01-03T00:22:39.272Z,81.60
2023-01-03T00:25:09.054Z,81.70
2023-01-03T00:27:38.581Z,81.70
2023-01-03T00:30:08.753Z,81.70
2023-01-03T00:32:38.377Z,81.60
2023-01-03T00:35:08.501Z,81.70
2023-01-03T00:37:38.183Z,81.60
2023-01-03T00:40:08.519Z,81.60
2023-01-03T00:42:57.772Z,81.60
2023-01-03T00:45:29.902Z,81.60
2023-01-03T00:48:01.934Z,81.60
2023-01-03T00:50:31.512Z,81.60
2023-01-03T00:53:01.870Z,81.50
2023-01-03T00:55:31.669Z,81.50
2023-01-03T00:58:01.262Z,81.40
2023-01-03T01:00:31.141Z,81.50
2023-01-03T01:03:01.240Z,81.40
2023-01-03T01:05:33.015Z,81.30
2023-01-03T01:08:02.660Z,81.30
2023-01-03T01:10:32.413Z,81.30
2023-01-03T01:13:02.086Z,81.30
2023-01-03T01:15:31.806Z,81.20
2023-01-03T01:18:01.415Z,81.10
2023-01-03T01:20:30.986Z,81.10
2023-01-03T01:23:00.695Z,81.10
2023-01-03T01:25:30.276Z,81.10
2023-01-03T01:27:59.848Z,81.00
2023-01-03T01:30:29.743Z,81.10
2023-01-03T01:32:59.392Z,80.90
2023-01-03T01:35:28.889Z,80.90
2023-01-03T01:37:59.349Z,80.70
2023-01-03T01:40:29.095Z,80.40
2023-01-03T01:43:18.308Z,80.30
2023-01-03T01:45:48.843Z,80.10
2023-01-03T01:48:18.492Z,80.00
2023-01-03T01:50:57.130Z,79.70
2023-01-03T01:53:34.171Z,79.60
2023-01-03T01:56:21.363Z,79.60
2023-01-03T01:58:54.085Z,79.40
2023-01-03T02:01:25.770Z,79.30
2023-01-03T02:04:22.055Z,79.10
2023-01-03T02:06:53.069Z,79.00
2023-01-03T02:09:22.670Z,79.00
2023-01-03T02:12:33.121Z,78.80
2023-01-03T02:15:41.899Z,78.80
2023-01-03T02:18:50.715Z,78.50
2023-01-03T02:21:47.518Z,78.30
2023-01-03T02:24:56.419Z,78.10
2023-01-03T02:28:01.132Z,78.00
2023-01-03T02:31:00.724Z,77.70
2023-01-03T02:33:48.388Z,77.40
2023-01-03T02:36:43.354Z,77.50
2023-01-03T02:39:40.992Z,77.30
2023-01-03T02:42:44.570Z,77.20
2023-01-03T02:45:20.684Z,76.90
2023-01-03T02:48:05.596Z,76.40
2023-01-03T02:50:41.416Z,76.30
2023-01-03T02:53:15.736Z,75.90
2023-01-03T02:55:46.913Z,75.90
2023-01-03T02:58:28.765Z,75.70
2023-01-03T03:01:01.697Z,75.50
2023-01-03T03:03:40.113Z,75.50
2023-01-03T03:06:49.218Z,74.80
2023-01-03T03:09:18.912Z,74.90
2023-01-03T03:12:09.894Z,74.60
2023-01-03T03:14:47.403Z,74.20
2023-01-03T03:17:23.746Z,74.50
2023-01-03T03:20:18.610Z,74.30
2023-01-03T03:23:16.830Z,74.20
2023-01-03T03:26:00.975Z,73.50
2023-01-03T03:28:38.038Z,73.20
2023-01-03T03:31:33.215Z,73.10
2023-01-03T03:34:19.527Z,73.10
2023-01-03T03:37:14.317Z,72.40
2023-01-03T03:40:03.698Z,71.90
2023-01-03T03:43:09.231Z,72.10
2023-01-03T03:45:48.515Z,71.00
2023-01-03T03:49:05.275Z,71.40
2023-01-03T03:51:38.866Z,71.00
2023-01-03T03:54:13.625Z,70.90
2023-01-03T03:56:48.663Z,70.50
2023-01-03T03:59:20.452Z,70.60
2023-01-03T04:01:51.793Z,70.10
2023-01-03T04:04:26.716Z,70.10
2023-01-03T04:06:56.876Z,69.10
2023-01-03T04:09:26.659Z,69.70
2023-01-03T04:11:56.170Z,69.70
2023-01-03T04:14:25.899Z,69.60
2023-01-03T04:16:55.648Z,68.90
2023-01-03T04:19:25.411Z,68.30
2023-01-03T04:21:55.132Z,68.50
2023-01-03T04:24:24.860Z,68.60
2023-01-03T04:26:54.476Z,68.90
2023-01-03T04:29:24.189Z,68.90
2023-01-03T04:31:53.823Z,68.70
2023-01-03T04:34:23.490Z,68.90
2023-01-03T04:36:53.191Z,69.30
2023-01-03T04:39:22.778Z,69.20
2023-01-03T04:41:52.384Z,69.20
2023-01-03T04:44:22.018Z,68.30
2023-01-03T04:46:53.189Z,68.60
2023-01-03T04:49:22.976Z,68.60
2023-01-03T04:51:52.586Z,68.20
2023-01-03T04:54:22.148Z,67.90
2023-01-03T04:56:52.557Z,68.00
2023-01-03T04:59:22.151Z,67.50
2023-01-03T05:01:53.689Z,67.50
2023-01-03T05:04:23.552Z,67.80
2023-01-03T05:06:55.677Z,67.40
2023-01-03T05:09:26.070Z,67.30
2023-01-03T05:11:55.924Z,67.20
2023-01-03T05:14:25.609Z,67.00
2023-01-03T05:16:55.304Z,66.60
2023-01-03T05:19:24.950Z,65.50
2023-01-03T05:22:14.216Z,66.00
2023-01-03T05:25:03.366Z,66.60
2023-01-03T05:27:33.132Z,66.50
2023-01-03T05:30:03.670Z,66.50
2023-01-03T05:32:33.354Z,66.20
2023-01-03T05:35:03.041Z,66.10
2023-01-03T05:37:32.669Z,65.70
2023-01-03T05:40:02.259Z,65.80
2023-01-03T05:42:32.068Z,65.50
2023-01-03T05:45:01.709Z,65.20
2023-01-03T05:47:31.297Z,65.60
2023-01-03T05:50:00.952Z,64.70
2023-01-03T05:52:30.600Z,64.70
2023-01-03T05:55:00.250Z,64.40
2023-01-03T05:57:35.197Z,64.70
2023-01-03T06:00:06.793Z,64.10
2023-01-03T06:02:36.589Z,64.20
2023-01-03T06:05:06.957Z,64.50
2023-01-03T06:07:38.921Z,64.10
2023-01-03T06:10:09.677Z,64.40
2023-01-03T06:12:39.427Z,64.20
2023-01-03T06:15:09.756Z,64.10
2023-01-03T06:17:59.059Z,64.20
2023-01-03T06:20:29.914Z,64.40
2023-01-03T06:23:00.224Z,63.80
2023-01-03T06:25:30.003Z,63.90
2023-01-03T06:27:59.684Z,64.20
2023-01-03T06:30:29.252Z,64.20
2023-01-03T06:32:58.887Z,64.50
2023-01-03T06:35:28.636Z,64.60
2023-01-03T06:37:58.828Z,64.90
2023-01-03T06:40:36.148Z,64.90
2023-01-03T06:43:07.830Z,64.80
2023-01-03T06:45:57.128Z,64.90
2023-01-03T06:48:46.351Z,64.80
2023-01-03T06:51:40.088Z,64.70
2023-01-03T06:54:12.146Z,64.50
2023-01-03T06:56:41.784Z,64.60
2023-01-03T06:59:12.238Z,64.60
2023-01-03T07:01:42.928Z,64.60
2023-01-03T07:04:13.286Z,64.60
2023-01-03T07:06:43.906Z,64.40
2023-01-03T07:09:14.101Z,64.40
2023-01-03T07:11:44.628Z,64.30
2023-01-03T07:14:15.224Z,64.10
2023-01-03T07:16:47.025Z,64.30
2023-01-03T07:19:19.792Z,64.40
2023-01-03T07:21:49.453Z,64.60
2023-01-03T07:24:20.858Z,64.50
2023-01-03T07:26:50.495Z,64.60
2023-01-03T07:29:20.135Z,64.30
2023-01-03T07:31:49.859Z,64.10
2023-01-03T07:34:20.855Z,64.20
2023-01-03T07:36:50.418Z,64.20
2023-01-03T07:39:20.061Z,64.30
2023-01-03T07:42:09.407Z,64.30
2023-01-03T07:44:38.950Z,64.40
2023-01-03T07:47:08.479Z,64.30
2023-01-03T07:49:38.123Z,64.30
2023-01-03T07:52:07.696Z,64.40
2023-01-03T07:54:37.313Z,64.50
2023-01-03T07:57:07.025Z,64.40
2023-01-03T07:59:37.287Z,64.40
2023-01-03T08:02:07.022Z,64.40
2023-01-03T08:04:36.780Z,64.60
2023-01-03T08:07:06.372Z,64.60
2023-01-03T08:09:55.631Z,64.50
2023-01-03T08:12:45.069Z,64.50
2023-01-03T08:15:14.614Z,64.40
2023-01-03T08:17:44.203Z,64.40
2023-01-03T08:20:13.919Z,64.40
2023-01-03T08:22:43.545Z,64.40
2023-01-03T08:25:13.208Z,64.30
2023-01-03T08:27:48.210Z,64.40
2023-01-03T08:30:20.165Z,64.60
2023-01-03T08:32:49.917Z,64.60
2023-01-03T08:35:19.797Z,64.40
2023-01-03T08:37:50.652Z,64.40
2023-01-03T08:40:21.082Z,64.30
2023-01-03T08:42:51.153Z,64.40
2023-01-03T08:45:21.083Z,64.30
2023-01-03T08:47:50.705Z,64.50
2023-01-03T08:50:20.342Z,64.40
2023-01-03T08:52:50.503Z,64.20
2023-01-03T08:55:20.263Z,64.20
2023-01-03T08:57:49.896Z,64.90
2023-01-03T09:00:20.764Z,64.10
2023-01-03T09:02:50.603Z,64.20
2023-01-03T09:05:20.535Z,64.40
2023-01-03T09:07:50.273Z,64.30
2023-01-03T09:10:19.854Z,64.40
2023-01-03T09:12:49.867Z,64.50
2023-01-03T09:15:19.608Z,64.60
2023-01-03T09:17:50.961Z,64.60
2023-01-03T09:20:20.937Z,64.60
2023-01-03T09:22:50.718Z,64.60
2023-01-03T09:25:20.751Z,64.80
2023-01-03T09:27:51.766Z,64.60
2023-01-03T09:30:22.522Z,64.80
2023-01-03T09:32:55.348Z,64.90
2023-01-03T09:35:24.967Z,65.00
2023-01-03T09:37:54.634Z,65.10
2023-01-03T09:40:24.526Z,65.70
2023-01-03T09:43:15.001Z,65.00
2023-01-03T09:45:53.476Z,65.10
2023-01-03T09:48:33.123Z,65.10
2023-01-03T09:51:19.749Z,65.20
2023-01-03T09:54:10.221Z,65.30
2023-01-03T09:56:59.610Z,65.10
2023-01-03T09:59:51.138Z,65.20
2023-01-03T10:03:04.052Z,65.20
2023-01-03T10:06:04.610Z,65.20
2023-01-03T10:09:13.433Z,65.10
2023-01-03T10:12:19.206Z,65.10
2023-01-03T10:15:24.196Z,65.20
2023-01-03T10:18:09.977Z,65.40
2023-01-03T10:21:12.678Z,65.40
2023-01-03T10:23:42.435Z,65.50
2023-01-03T10:26:14.454Z,65.50
2023-01-03T10:28:47.273Z,65.60
2023-01-03T10:31:43.616Z,65.60
2023-01-03T10:34:14.011Z,65.70
2023-01-03T10:36:43.706Z,65.80
2023-01-03T10:39:13.877Z,65.80
2023-01-03T10:41:50.706Z,65.90
2023-01-03T10:44:39.915Z,66.00
2023-01-03T10:47:18.505Z,66.20
2023-01-03T10:49:49.695Z,66.40
2023-01-03T10:52:24.619Z,66.60
2023-01-03T10:55:03.624Z,66.60
2023-01-03T10:57:50.026Z,66.70
2023-01-03T11:00:33.497Z,66.80
2023-01-03T11:03:22.090Z,67.00
2023-01-03T11:06:11.844Z,67.30
2023-01-03T11:08:50.667Z,67.30
2023-01-03T11:11:35.342Z,67.40
2023-01-03T11:14:27.748Z,67.60
2023-01-03T11:17:03.703Z,67.70
2023-01-03T11:19:35.298Z,67.80
2023-01-03T11:22:35.537Z,67.90
2023-01-03T11:25:40.070Z,68.00
2023-01-03T11:28:48.775Z,68.10
2023-01-03T11:31:37.819Z,68.20
2023-01-03T11:34:26.308Z,68.30
2023-01-03T11:37:35.130Z,68.30
2023-01-03T11:40:33.540Z,69.20
2023-01-03T11:43:42.291Z,68.60
2023-01-03T11:46:38.480Z,68.70
2023-01-03T11:49:43.524Z,68.80
2023-01-03T11:52:51.574Z,68.80
2023-01-03T11:55:58.084Z,68.90
2023-01-03T11:59:07.143Z,69.10
2023-01-03T12:02:16.150Z,69.20
2023-01-03T12:05:24.164Z,69.20
2023-01-03T12:08:32.951Z,69.40
2023-01-03T12:11:34.993Z,69.50
2023-01-03T12:14:26.763Z,69.60
2023-01-03T12:17:07.130Z,69.80
2023-01-03T12:19:46.018Z,69.80
2023-01-03T12:22:26.630Z,69.80
2023-01-03T12:25:19.570Z,69.90
2023-01-03T12:27:58.610Z,70.10
2023-01-03T12:30:58.274Z,70.20
2023-01-03T12:33:44.406Z,70.30
2023-01-03T12:36:44.722Z,71.20
2023-01-03T12:39:42.700Z,70.60
2023-01-03T12:42:51.481Z,70.80
2023-01-03T12:45:46.683Z,70.90
2023-01-03T12:48:42.870Z,70.90
2023-01-03T12:51:13.783Z,71.00
2023-01-03T12:53:53.293Z,71.00
2023-01-03T12:56:56.717Z,71.10
2023-01-03T12:59:52.928Z,71.20
2023-01-03T13:02:54.153Z,71.40
2023-01-03T13:05:45.459Z,71.30
2023-01-03T13:08:41.871Z,71.40
2023-01-03T13:11:37.923Z,71.50
2023-01-03T13:14:20.513Z,71.50
2023-01-03T13:16:51.993Z,71.50
2023-01-03T13:19:42.422Z,71.70
2023-01-03T13:22:47.527Z,71.70
2023-01-03T13:25:39.152Z,72.00
2023-01-03T13:28:32.137Z,72.10
2023-01-03T13:31:28.251Z,72.20
2023-01-03T13:34:12.159Z,72.30
2023-01-03T13:37:11.396Z,72.40
2023-01-03T13:40:04.112Z,72.50
2023-01-03T13:42:41.819Z,72.50
2023-01-03T13:45:50.756Z,72.50
2023-01-03T13:48:35.228Z,72.70
2023-01-03T13:51:27.497Z,72.90
2023-01-03T13:54:22.768Z,73.00
2023-01-03T13:57:05.283Z,73.10
2023-01-03T13:59:44.897Z,73.20
2023-01-03T14:02:46.580Z,73.40
2023-01-03T14:05:42.668Z,73.60
2023-01-03T14:08:35.439Z,73.60
2023-01-03T14:11:35.072Z,73.70
2023-01-03T14:14:13.363Z,73.90
2023-01-03T14:16:57.777Z,74.00
2023-01-03T14:19:33.879Z,74.10
2023-01-03T14:22:30.331Z,74.20
2023-01-03T14:25:01.110Z,74.30
2023-01-03T14:27:45.705Z,74.40
2023-01-03T14:30:30.438Z,74.30
2023-01-03T14:33:00.930Z,74.40
2023-01-03T14:35:43.127Z,74.50
2023-01-03T14:38:33.734Z,74.60
2023-01-03T14:41:04.553Z,74.50
2023-01-03T14:43:37.073Z,74.70
2023-01-03T14:46:09.837Z,74.90
2023-01-03T14:48:39.691Z,75.20
2023-01-03T14:51:11.733Z,75.60
2023-01-03T14:53:42.943Z,75.80
2023-01-03T14:56:13.489Z,76.10
2023-01-03T14:58:49.818Z,76.20
2023-01-03T15:01:20.285Z,76.30
2023-01-03T15:03:51.471Z,76.20
2023-01-03T15:06:27.653Z,76.30
2023-01-03T15:09:03.393Z,76.40
2023-01-03T15:11:57.560Z,76.50
2023-01-03T15:14:29.145Z,76.70
2023-01-03T15:17:18.012Z,77.00
2023-01-03T15:19:56.349Z,77.10
2023-01-03T15:22:35.087Z,77.20
2023-01-03T15:25:10.692Z,77.30
2023-01-03T15:27:45.976Z,77.30
2023-01-03T15:30:27.922Z,77.40
2023-01-03T15:33:03.779Z,77.40
2023-01-03T15:35:42.220Z,77.40
2023-01-03T15:38:33.960Z,77.50
2023-01-03T15:41:43.383Z,77.50
2023-01-03T15:44:13.915Z,77.60
2023-01-03T15:46:48.089Z,77.70
2023-01-03T15:49:20.505Z,77.70
2023-01-03T15:51:50.869Z,77.70
2023-01-03T15:54:22.512Z,77.80
2023-01-03T15:57:11.675Z,77.90
2023-01-03T15:59:43.637Z,78.00
2023-01-03T16:02:19.548Z,78.00
2023-01-03T16:04:53.644Z,77.90
2023-01-03T16:07:23.643Z,78.00
2023-01-03T16:09:54.136Z,78.10
2023-01-03T16:12:32.393Z,78.10
2023-01-03T16:15:02.696Z,78.20
2023-01-03T16:17:33.044Z,78.40
2023-01-03T16:20:03.598Z,78.50
2023-01-03T16:22:35.766Z,78.60
2023-01-03T16:25:07.645Z,78.70
2023-01-03T16:27:37.307Z,78.80
2023-01-03T16:30:07.345Z,78.80
2023-01-03T16:32:37.630Z,79.60
2023-01-03T16:35:19.632Z,79.00
2023-01-03T16:37:49.363Z,79.00
2023-01-03T16:40:22.034Z,79.20
2023-01-03T16:42:51.761Z,79.20
2023-01-03T16:45:21.359Z,79.20
2023-01-03T16:47:51.851Z,79.30
2023-01-03T16:50:23.105Z,79.40
2023-01-03T16:52:56.410Z,79.40
2023-01-03T16:55:34.954Z,79.40
2023-01-03T16:58:04.635Z,79.60
2023-01-03T17:00:36.275Z,79.60
2023-01-03T17:03:06.236Z,79.60
2023-01-03T17:05:38.935Z,79.80
2023-01-03T17:08:38.369Z,79.80
2023-01-03T17:11:10.215Z,79.90
2023-01-03T17:13:44.776Z,79.80
2023-01-03T17:16:18.239Z,80.60
2023-01-03T17:18:48.589Z,80.00
2023-01-03T17:21:25.967Z,80.10
2023-01-03T17:24:03.908Z,80.10
2023-01-03T17:26:35.666Z,80.40
2023-01-03T17:29:07.890Z,80.60
2023-01-03T17:31:37.568Z,80.60
2023-01-03T17:34:38.282Z,80.50
2023-01-03T17:37:07.820Z,80.40
2023-01-03T17:39:37.439Z,80.40
2023-01-03T17:42:20.724Z,80.40
2023-01-03T17:45:11.532Z,80.30
2023-01-03T17:48:04.609Z,80.20
2023-01-03T17:50:34.679Z,80.10
2023-01-03T17:53:04.676Z,80.00
2023-01-03T17:55:34.398Z,79.80
2023-01-03T17:58:05.657Z,79.70
2023-01-03T18:00:35.898Z,79.60
2023-01-03T18:03:05.747Z,79.50
2023-01-03T18:05:35.563Z,79.50
2023-01-03T18:08:06.154Z,79.50
2023-01-03T18:10:47.253Z,79.30
2023-01-03T18:13:38.834Z,79.30
2023-01-03T18:16:08.986Z,79.30
2023-01-03T18:18:38.664Z,79.20
2023-01-03T18:21:16.133Z,79.20
2023-01-03T18:23:46.520Z,79.20
2023-01-03T18:26:17.982Z,79.20
2023-01-03T18:28:47.821Z,79.20
2023-01-03T18:31:20.247Z,79.10
2023-01-03T18:33:50.013Z,79.10
2023-01-03T18:36:32.107Z,80.00
2023-01-03T18:39:22.876Z,79.40
2023-01-03T18:41:52.660Z,79.50
2023-01-03T18:44:25.010Z,79.60
2023-01-03T18:46:54.951Z,79.60
2023-01-03T18:49:24.646Z,79.70
2023-01-03T18:51:55.991Z,79.80
2023-01-03T18:54:25.612Z,80.00
2023-01-03T18:56:55.216Z,80.00
2023-01-03T18:59:31.263Z,80.10
2023-01-03T19:02:01.027Z,80.20
2023-01-03T19:04:30.674Z,80.20
2023-01-03T19:07:00.370Z,80.20
2023-01-03T19:09:31.075Z,80.20
2023-01-03T19:12:00.846Z,80.20
2023-01-03T19:14:31.152Z,80.30
2023-01-03T19:17:00.709Z,80.30
2023-01-03T19:19:30.289Z,80.30
2023-01-03T19:21:59.854Z,80.30
2023-01-03T19:24:39.394Z,80.40
2023-01-03T19:27:22.630Z,80.40
2023-01-03T19:29:53.796Z,80.40
2023-01-03T19:32:27.096Z,80.40
2023-01-03T19:34:57.041Z,80.50
2023-01-03T19:37:26.533Z,80.70
2023-01-03T19:39:56.057Z,80.70
2023-01-03T19:42:45.251Z,80.70
2023-01-03T19:45:24.227Z,80.70
2023-01-03T19:47:53.963Z,80.70
2023-01-03T19:50:26.944Z,80.70
2023-01-03T19:52:57.491Z,80.70
2023-01-03T19:55:35.755Z,80.80
2023-01-03T19:58:23.794Z,80.80
2023-01-03T20:00:53.739Z,80.80
2023-01-03T20:03:34.635Z,81.00
2023-01-03T20:06:04.432Z,80.80
2023-01-03T20:08:34.326Z,80.70
2023-01-03T20:11:04.616Z,80.60
2023-01-03T20:13:35.173Z,81.30
2023-01-03T20:16:05.779Z,80.50
2023-01-03T20:18:37.989Z,80.50
2023-01-03T20:21:28.341Z,80.50
2023-01-03T20:24:01.414Z,80.50
2023-01-03T20:26:36.665Z,80.50
2023-01-03T20:29:07.055Z,80.50
2023-01-03T20:31:37.074Z,80.50
2023-01-03T20:34:08.216Z,80.40
2023-01-03T20:36:44.868Z,80.30
2023-01-03T20:39:26.464Z,80.30
2023-01-03T20:42:01.554Z,80.20
2023-01-03T20:44:33.058Z,80.20
2023-01-03T20:47:03.073Z,80.10
2023-01-03T20:49:32.709Z,80.00
2023-01-03T20:52:02.232Z,80.10
2023-01-03T20:54:31.836Z,80.00
2023-01-03T20:57:01.881Z,80.00
2023-01-03T20:59:31.434Z,79.90
2023-01-03T21:02:01.274Z,79.90
2023-01-03T21:04:31.014Z,79.90
2023-01-03T21:07:02.793Z,79.90
2023-01-03T21:09:35.835Z,80.00
2023-01-03T21:12:05.473Z,79.80
2023-01-03T21:14:35.068Z,79.90
2023-01-03T21:17:05.342Z,79.90
2023-01-03T21:19:35.076Z,80.00
2023-01-03T21:22:06.534Z,80.00
2023-01-03T21:24:38.942Z,80.00
2023-01-03T21:27:09.816Z,80.00
2023-01-03T21:29:39.537Z,79.90
2023-01-03T21:32:11.456Z,79.90
2023-01-03T21:34:42.539Z,79.90
2023-01-03T21:37:12.457Z,80.00
2023-01-03T21:39:42.043Z,80.20
2023-01-03T21:42:35.206Z,80.10
2023-01-03T21:45:04.925Z,80.20
2023-01-03T21:47:34.503Z,80.30
2023-01-03T21:50:04.223Z,80.30
2023-01-03T21:52:33.819Z,80.30
2023-01-03T21:55:04.257Z,80.30
2023-01-03T21:57:35.781Z,80.30
2023-01-03T22:00:06.668Z,80.10
2023-01-03T22:02:59.946Z,80.10
2023-01-03T22:05:31.394Z,80.00
2023-01-03T22:08:01.756Z,80.00
2023-01-03T22:10:32.189Z,80.10
2023-01-03T22:13:06.009Z,80.10
2023-01-03T22:15:38.929Z,80.10
2023-01-03T22:18:10.698Z,80.10
2023-01-03T22:20:40.334Z,80.20
2023-01-03T22:23:10.122Z,80.10
2023-01-03T22:25:39.795Z,80.10
2023-01-03T22:28:09.475Z,80.10
2023-01-03T22:30:40.739Z,80.10
2023-01-03T22:33:10.788Z,80.00
2023-01-03T22:35:40.390Z,80.00
2023-01-03T22:38:10.207Z,79.90
2023-01-03T22:40:39.945Z,79.90
2023-01-03T22:43:09.508Z,79.80
2023-01-03T22:45:41.356Z,79.80
2023-01-03T22:48:10.994Z,79.70
2023-01-03T22:50:42.496Z,79.60
2023-01-03T22:53:12.161Z,79.60
2023-01-03T22:55:45.051Z,79.60
2023-01-03T22:58:17.876Z,79.60
2023-01-03T23:00:48.408Z,79.60
2023-01-03T23:03:18.094Z,79.60
2023-01-03T23:05:47.649Z,79.70
2023-01-03T23:08:17.293Z,79.70
2023-01-03T23:10:46.841Z,79.70
2023-01-03T23:13:16.364Z,79.70
2023-01-03T23:15:45.997Z,79.70
2023-01-03T23:18:16.284Z,79.80
2023-01-03T23:20:50.676Z,79.80
2023-01-03T23:23:20.555Z,79.80
2023-01-03T23:25:50.121Z,79.90
2023-01-03T23:28:19.724Z,79.90
2023-01-03T23:30:49.344Z,80.00
2023-01-03T23:33:19.268Z,80.00
2023-01-03T23:35:48.930Z,80.10
2023-01-03T23:38:18.707Z,80.10
2023-01-03T23:40:48.326Z,80.10
2023-01-03T23:43:17.996Z,80.20
2023-01-03T23:45:47.567Z,80.30
2023-01-03T23:48:17.240Z,80.40
2023-01-03T23:50:46.850Z,80.40
2023-01-03T23:53:16.430Z,80.40
2023-01-03T23:55:46.367Z,80.40
2023-01-03T23:58:15.979Z,80.50
